sensor_id;sensor_type;location;lat;lon;timestamp;temperature;humidity
23411;DHT22;11878;51.774;7.220;2023-03-23T00:02:22;11.00;99.90
23411;DHT22;11878;51.774;7.220;2023-03-23T00:05:23;11.00;99.90
23411;DHT22;11878;51.774;7.220;2023-03-23T00:08:24;11.00;99.90
23411;DHT22;11878;51.774;7.220;2023-03-23T00:11:29;11.10;99.90
23411;DHT22;11878;51.774;7.220;2023-03-23T00:14:32;11.00;99.90
23411;DHT22;11878;51.774;7.220;2023-03-23T00:17:41;11.00;99.90
23411;DHT22;11878;51.774;7.220;2023-03-23T00:20:43;11.00;99.90
23411;DHT22;11878;51.774;7.220;2023-03-23T00:23:46;11.00;99.90
23411;DHT22;11878;51.774;7.220;2023-03-23T00:26:48;11.00;99.90
23411;DHT22;11878;51.774;7.220;2023-03-23T00:29:50;11.10;99.90
23411;DHT22;11878;51.774;7.220;2023-03-23T00:32:53;11.00;99.90
23411;DHT22;11878;51.774;7.220;2023-03-23T00:35:54;11.00;99.90
23411;DHT22;11878;51.774;7.220;2023-03-23T00:38:55;11.00;99.90
23411;DHT22;11878;51.774;7.220;2023-03-23T00:41:59;11.00;99.90
23411;DHT22;11878;51.774;7.220;2023-03-23T00:45:04;11.10;99.90
23411;DHT22;11878;51.774;7.220;2023-03-23T00:48:11;11.10;99.90
23411;DHT22;11878;51.774;7.220;2023-03-23T00:51:15;11.10;99.90
23411;DHT22;11878;51.774;7.220;2023-03-23T00:54:16;11.10;99.90
23411;DHT22;11878;51.774;7.220;2023-03-23T00:57:16;11.10;99.90
23411;DHT22;11878;51.774;7.220;2023-03-23T01:00:18;11.10;99.90
23411;DHT22;11878;51.774;7.220;2023-03-23T01:03:19;11.10;99.90
23411;DHT22;11878;51.774;7.220;2023-03-23T01:06:20;11.10;99.90
23411;DHT22;11878;51.774;7.220;2023-03-23T01:09:22;11.10;99.90
23411;DHT22;11878;51.774;7.220;2023-03-23T01:12:23;11.20;99.90
23411;DHT22;11878;51.774;7.220;2023-03-23T01:15:25;11.20;99.90
23411;DHT22;11878;51.774;7.220;2023-03-23T01:18:26;11.20;99.90
23411;DHT22;11878;51.774;7.220;2023-03-23T01:21:27;11.20;99.90
23411;DHT22;11878;51.774;7.220;2023-03-23T01:24:28;11.20;99.90
23411;DHT22;11878;51.774;7.220;2023-03-23T01:27:29;11.20;99.90
23411;DHT22;11878;51.774;7.220;2023-03-23T01:30:30;11.20;99.90
23411;DHT22;11878;51.774;7.220;2023-03-23T01:33:31;11.30;99.90
23411;DHT22;11878;51.774;7.220;2023-03-23T01:36:32;11.30;99.90
23411;DHT22;11878;51.774;7.220;2023-03-23T01:39:36;11.40;99.90
23411;DHT22;11878;51.774;7.220;2023-03-23T01:42:38;11.40;99.90
23411;DHT22;11878;51.774;7.220;2023-03-23T01:45:41;11.40;99.90
23411;DHT22;11878;51.774;7.220;2023-03-23T01:48:42;11.50;99.90
23411;DHT22;11878;51.774;7.220;2023-03-23T01:51:46;11.50;99.90
23411;DHT22;11878;51.774;7.220;2023-03-23T01:54:49;11.50;99.90
23411;DHT22;11878;51.774;7.220;2023-03-23T01:57:52;11.50;99.90
23411;DHT22;11878;51.774;7.220;2023-03-23T02:00:55;11.60;99.90
23411;DHT22;11878;51.774;7.220;2023-03-23T02:03:57;11.60;99.90
23411;DHT22;11878;51.774;7.220;2023-03-23T02:06:58;11.70;99.90
23411;DHT22;11878;51.774;7.220;2023-03-23T02:10:01;11.70;99.90
23411;DHT22;11878;51.774;7.220;2023-03-23T02:13:07;11.80;99.90
23411;DHT22;11878;51.774;7.220;2023-03-23T02:16:23;11.70;99.90
23411;DHT22;11878;51.774;7.220;2023-03-23T02:33:28;11.80;99.90
23411;DHT22;11878;51.774;7.220;2023-03-23T02:36:40;11.80;99.90
23411;DHT22;11878;51.774;7.220;2023-03-23T02:39:45;11.80;99.90
23411;DHT22;11878;51.774;7.220;2023-03-23T02:42:52;11.80;99.90
23411;DHT22;11878;51.774;7.220;2023-03-23T02:45:55;11.80;99.90
23411;DHT22;11878;51.774;7.220;2023-03-23T02:48:58;11.80;99.90
23411;DHT22;11878;51.774;7.220;2023-03-23T02:52:08;11.90;99.90
23411;DHT22;11878;51.774;7.220;2023-03-23T02:55:10;11.90;99.90
23411;DHT22;11878;51.774;7.220;2023-03-23T02:58:12;11.80;99.90
23411;DHT22;11878;51.774;7.220;2023-03-23T03:04:40;11.80;99.90
23411;DHT22;11878;51.774;7.220;2023-03-23T03:11:07;11.90;99.90
23411;DHT22;11878;51.774;7.220;2023-03-23T03:14:16;11.80;99.90
23411;DHT22;11878;51.774;7.220;2023-03-23T03:17:24;11.90;99.90
23411;DHT22;11878;51.774;7.220;2023-03-23T03:20:27;11.90;99.90
23411;DHT22;11878;51.774;7.220;2023-03-23T03:23:32;11.90;99.90
23411;DHT22;11878;51.774;7.220;2023-03-23T03:26:36;11.90;99.90
23411;DHT22;11878;51.774;7.220;2023-03-23T03:29:56;11.90;99.90
23411;DHT22;11878;51.774;7.220;2023-03-23T03:32:59;11.90;99.90
23411;DHT22;11878;51.774;7.220;2023-03-23T03:36:03;11.90;99.90
23411;DHT22;11878;51.774;7.220;2023-03-23T03:39:09;11.80;99.90
23411;DHT22;11878;51.774;7.220;2023-03-23T03:42:11;11.80;99.90
23411;DHT22;11878;51.774;7.220;2023-03-23T03:45:15;11.90;99.90
23411;DHT22;11878;51.774;7.220;2023-03-23T03:48:16;11.90;99.90
23411;DHT22;11878;51.774;7.220;2023-03-23T03:51:17;11.90;99.90
23411;DHT22;11878;51.774;7.220;2023-03-23T03:54:22;11.80;99.90
23411;DHT22;11878;51.774;7.220;2023-03-23T03:57:24;11.90;99.90
23411;DHT22;11878;51.774;7.220;2023-03-23T04:00:43;12.00;99.90
23411;DHT22;11878;51.774;7.220;2023-03-23T04:03:51;11.90;99.90
23411;DHT22;11878;51.774;7.220;2023-03-23T04:07:02;11.90;99.90
23411;DHT22;11878;51.774;7.220;2023-03-23T04:10:08;12.00;99.90
23411;DHT22;11878;51.774;7.220;2023-03-23T04:13:10;12.00;99.90
23411;DHT22;11878;51.774;7.220;2023-03-23T04:16:17;12.00;99.90
23411;DHT22;11878;51.774;7.220;2023-03-23T04:19:19;11.90;99.90
23411;DHT22;11878;51.774;7.220;2023-03-23T04:22:20;12.00;99.90
23411;DHT22;11878;51.774;7.220;2023-03-23T04:25:25;12.00;99.90
23411;DHT22;11878;51.774;7.220;2023-03-23T04:28:27;12.00;99.90
23411;DHT22;11878;51.774;7.220;2023-03-23T04:31:50;12.00;99.90
23411;DHT22;11878;51.774;7.220;2023-03-23T04:35:18;12.00;99.90
23411;DHT22;11878;51.774;7.220;2023-03-23T04:38:24;12.00;99.90
23411;DHT22;11878;51.774;7.220;2023-03-23T04:41:32;12.00;99.90
23411;DHT22;11878;51.774;7.220;2023-03-23T04:44:46;12.00;99.90
23411;DHT22;11878;51.774;7.220;2023-03-23T04:47:57;12.10;99.90
23411;DHT22;11878;51.774;7.220;2023-03-23T04:51:08;12.10;99.90
23411;DHT22;11878;51.774;7.220;2023-03-23T04:54:10;12.10;99.90
23411;DHT22;11878;51.774;7.220;2023-03-23T04:57:14;12.10;99.90
23411;DHT22;11878;51.774;7.220;2023-03-23T05:00:21;12.10;99.90
23411;DHT22;11878;51.774;7.220;2023-03-23T05:03:26;12.10;99.90
23411;DHT22;11878;51.774;7.220;2023-03-23T05:06:30;12.10;99.90
23411;DHT22;11878;51.774;7.220;2023-03-23T05:09:37;12.00;99.90
23411;DHT22;11878;51.774;7.220;2023-03-23T05:12:38;12.00;99.90
23411;DHT22;11878;51.774;7.220;2023-03-23T05:15:41;12.10;99.90
23411;DHT22;11878;51.774;7.220;2023-03-23T05:18:42;12.10;99.90
23411;DHT22;11878;51.774;7.220;2023-03-23T05:21:47;12.10;99.90
23411;DHT22;11878;51.774;7.220;2023-03-23T05:24:48;12.10;99.90
23411;DHT22;11878;51.774;7.220;2023-03-23T05:27:52;12.20;99.90
23411;DHT22;11878;51.774;7.220;2023-03-23T05:31:11;12.20;99.90
23411;DHT22;11878;51.774;7.220;2023-03-23T05:34:13;12.20;99.90
23411;DHT22;11878;51.774;7.220;2023-03-23T05:37:28;12.20;99.90
23411;DHT22;11878;51.774;7.220;2023-03-23T05:40:40;12.10;99.90
23411;DHT22;11878;51.774;7.220;2023-03-23T05:43:51;12.20;99.90
23411;DHT22;11878;51.774;7.220;2023-03-23T05:47:04;12.20;99.90
23411;DHT22;11878;51.774;7.220;2023-03-23T05:50:07;12.20;99.90
23411;DHT22;11878;51.774;7.220;2023-03-23T05:53:09;12.20;99.90
23411;DHT22;11878;51.774;7.220;2023-03-23T05:56:13;12.20;99.90
23411;DHT22;11878;51.774;7.220;2023-03-23T05:59:50;12.20;99.90
23411;DHT22;11878;51.774;7.220;2023-03-23T06:02:56;12.30;99.90
23411;DHT22;11878;51.774;7.220;2023-03-23T06:06:10;12.30;99.90
23411;DHT22;11878;51.774;7.220;2023-03-23T06:09:28;12.20;99.90
23411;DHT22;11878;51.774;7.220;2023-03-23T06:12:39;12.30;99.90
23411;DHT22;11878;51.774;7.220;2023-03-23T06:15:55;12.40;99.90
23411;DHT22;11878;51.774;7.220;2023-03-23T06:19:29;12.30;99.90
23411;DHT22;11878;51.774;7.220;2023-03-23T06:22:44;12.30;99.90
23411;DHT22;11878;51.774;7.220;2023-03-23T06:25:54;12.30;99.90
23411;DHT22;11878;51.774;7.220;2023-03-23T06:28:55;12.30;99.90
23411;DHT22;11878;51.774;7.220;2023-03-23T06:32:00;12.20;99.90
23411;DHT22;11878;51.774;7.220;2023-03-23T06:35:04;12.30;99.90
23411;DHT22;11878;51.774;7.220;2023-03-23T06:38:37;12.30;99.90
23411;DHT22;11878;51.774;7.220;2023-03-23T06:41:38;12.30;99.90
23411;DHT22;11878;51.774;7.220;2023-03-23T06:44:38;12.30;99.90
23411;DHT22;11878;51.774;7.220;2023-03-23T06:47:39;12.30;99.90
23411;DHT22;11878;51.774;7.220;2023-03-23T06:50:44;12.50;99.90
23411;DHT22;11878;51.774;7.220;2023-03-23T06:53:46;12.40;99.90
23411;DHT22;11878;51.774;7.220;2023-03-23T06:56:48;12.50;99.90
23411;DHT22;11878;51.774;7.220;2023-03-23T06:59:49;12.50;99.90
23411;DHT22;11878;51.774;7.220;2023-03-23T07:02:50;12.60;99.90
23411;DHT22;11878;51.774;7.220;2023-03-23T07:05:52;12.60;99.90
23411;DHT22;11878;51.774;7.220;2023-03-23T07:08:55;12.50;99.90
23411;DHT22;11878;51.774;7.220;2023-03-23T07:12:00;12.50;99.90
23411;DHT22;11878;51.774;7.220;2023-03-23T07:15:09;12.50;99.90
23411;DHT22;11878;51.774;7.220;2023-03-23T07:18:12;12.40;99.90
23411;DHT22;11878;51.774;7.220;2023-03-23T07:21:19;12.50;99.90
23411;DHT22;11878;51.774;7.220;2023-03-23T07:24:20;12.40;99.90
23411;DHT22;11878;51.774;7.220;2023-03-23T07:27:38;12.50;99.90
23411;DHT22;11878;51.774;7.220;2023-03-23T07:30:40;12.50;99.90
23411;DHT22;11878;51.774;7.220;2023-03-23T07:33:43;12.50;99.90
23411;DHT22;11878;51.774;7.220;2023-03-23T07:36:45;12.60;99.90
23411;DHT22;11878;51.774;7.220;2023-03-23T07:39:47;12.60;99.90
23411;DHT22;11878;51.774;7.220;2023-03-23T07:42:57;12.60;99.90
23411;DHT22;11878;51.774;7.220;2023-03-23T07:46:14;12.60;99.90
23411;DHT22;11878;51.774;7.220;2023-03-23T07:49:30;12.70;99.90
23411;DHT22;11878;51.774;7.220;2023-03-23T07:52:43;12.70;99.90
23411;DHT22;11878;51.774;7.220;2023-03-23T07:55:44;12.70;99.90
23411;DHT22;11878;51.774;7.220;2023-03-23T07:59:07;12.70;99.90
23411;DHT22;11878;51.774;7.220;2023-03-23T08:02:11;12.70;99.90
23411;DHT22;11878;51.774;7.220;2023-03-23T08:05:29;12.70;99.90
23411;DHT22;11878;51.774;7.220;2023-03-23T08:08:56;12.80;99.90
23411;DHT22;11878;51.774;7.220;2023-03-23T08:12:33;12.80;99.90
23411;DHT22;11878;51.774;7.220;2023-03-23T08:15:52;12.80;99.90
23411;DHT22;11878;51.774;7.220;2023-03-23T08:19:22;12.90;99.90
23411;DHT22;11878;51.774;7.220;2023-03-23T08:22:56;13.00;99.90
23411;DHT22;11878;51.774;7.220;2023-03-23T08:26:20;13.00;99.90
23411;DHT22;11878;51.774;7.220;2023-03-23T08:29:45;12.90;99.90
23411;DHT22;11878;51.774;7.220;2023-03-23T08:33:05;12.90;99.90
23411;DHT22;11878;51.774;7.220;2023-03-23T08:36:27;12.90;99.90
23411;DHT22;11878;51.774;7.220;2023-03-23T08:40:00;12.80;99.90
23411;DHT22;11878;51.774;7.220;2023-03-23T08:43:20;12.70;99.90
23411;DHT22;11878;51.774;7.220;2023-03-23T08:46:41;12.60;99.90
23411;DHT22;11878;51.774;7.220;2023-03-23T08:50:05;12.50;99.90
23411;DHT22;11878;51.774;7.220;2023-03-23T08:53:29;12.50;99.90
23411;DHT22;11878;51.774;7.220;2023-03-23T08:56:50;12.40;99.90
23411;DHT22;11878;51.774;7.220;2023-03-23T09:00:08;12.40;99.90
23411;DHT22;11878;51.774;7.220;2023-03-23T09:03:47;12.30;99.90
23411;DHT22;11878;51.774;7.220;2023-03-23T09:06:55;12.20;99.90
23411;DHT22;11878;51.774;7.220;2023-03-23T09:09:57;12.00;99.90
23411;DHT22;11878;51.774;7.220;2023-03-23T09:12:58;12.00;99.90
23411;DHT22;11878;51.774;7.220;2023-03-23T09:16:00;12.00;99.90
23411;DHT22;11878;51.774;7.220;2023-03-23T09:19:01;12.10;99.90
23411;DHT22;11878;51.774;7.220;2023-03-23T09:22:03;12.20;99.90
23411;DHT22;11878;51.774;7.220;2023-03-23T09:25:05;12.20;99.90
23411;DHT22;11878;51.774;7.220;2023-03-23T09:28:06;12.20;99.90
23411;DHT22;11878;51.774;7.220;2023-03-23T09:31:07;12.30;99.90
23411;DHT22;11878;51.774;7.220;2023-03-23T09:34:08;12.40;99.90
23411;DHT22;11878;51.774;7.220;2023-03-23T09:37:10;12.40;99.90
23411;DHT22;11878;51.774;7.220;2023-03-23T09:40:16;12.10;99.90
23411;DHT22;11878;51.774;7.220;2023-03-23T09:43:39;11.00;99.90
23411;DHT22;11878;51.774;7.220;2023-03-23T09:47:10;10.40;99.90
23411;DHT22;11878;51.774;7.220;2023-03-23T09:50:19;10.40;99.90
23411;DHT22;11878;51.774;7.220;2023-03-23T09:53:30;10.50;99.90
23411;DHT22;11878;51.774;7.220;2023-03-23T09:56:35;10.70;99.90
23411;DHT22;11878;51.774;7.220;2023-03-23T09:59:41;10.10;99.90
23411;DHT22;11878;51.774;7.220;2023-03-23T10:03:07;10.70;99.90
23411;DHT22;11878;51.774;7.220;2023-03-23T10:06:14;10.70;99.90
23411;DHT22;11878;51.774;7.220;2023-03-23T10:09:17;10.80;99.90
23411;DHT22;11878;51.774;7.220;2023-03-23T10:12:33;10.80;99.90
23411;DHT22;11878;51.774;7.220;2023-03-23T10:15:38;10.90;99.90
23411;DHT22;11878;51.774;7.220;2023-03-23T10:19:16;10.90;99.90
23411;DHT22;11878;51.774;7.220;2023-03-23T10:22:32;11.00;99.90
23411;DHT22;11878;51.774;7.220;2023-03-23T10:25:36;11.10;99.90
23411;DHT22;11878;51.774;7.220;2023-03-23T10:28:41;11.10;99.90
23411;DHT22;11878;51.774;7.220;2023-03-23T10:31:47;11.20;99.90
23411;DHT22;11878;51.774;7.220;2023-03-23T10:34:58;11.30;99.90
23411;DHT22;11878;51.774;7.220;2023-03-23T10:38:02;11.30;99.90
23411;DHT22;11878;51.774;7.220;2023-03-23T10:41:13;11.20;99.90
23411;DHT22;11878;51.774;7.220;2023-03-23T10:44:20;11.20;99.90
23411;DHT22;11878;51.774;7.220;2023-03-23T10:47:23;11.20;99.90
23411;DHT22;11878;51.774;7.220;2023-03-23T10:50:28;11.10;99.90
23411;DHT22;11878;51.774;7.220;2023-03-23T10:53:34;11.10;99.90
23411;DHT22;11878;51.774;7.220;2023-03-23T10:56:41;11.10;99.90
23411;DHT22;11878;51.774;7.220;2023-03-23T10:59:42;11.10;99.90
23411;DHT22;11878;51.774;7.220;2023-03-23T11:03:06;11.10;99.90
23411;DHT22;11878;51.774;7.220;2023-03-23T11:06:10;11.00;99.90
23411;DHT22;11878;51.774;7.220;2023-03-23T11:09:14;11.10;99.90
23411;DHT22;11878;51.774;7.220;2023-03-23T11:12:17;11.10;99.90
23411;DHT22;11878;51.774;7.220;2023-03-23T11:15:34;11.10;99.90
23411;DHT22;11878;51.774;7.220;2023-03-23T11:18:39;11.00;99.90
23411;DHT22;11878;51.774;7.220;2023-03-23T11:21:40;11.00;99.90
23411;DHT22;11878;51.774;7.220;2023-03-23T11:24:52;11.00;99.90
23411;DHT22;11878;51.774;7.220;2023-03-23T11:27:53;11.10;99.90
23411;DHT22;11878;51.774;7.220;2023-03-23T11:30:55;11.00;99.90
23411;DHT22;11878;51.774;7.220;2023-03-23T11:34:03;11.10;99.90
23411;DHT22;11878;51.774;7.220;2023-03-23T11:37:55;11.20;99.90
23411;DHT22;11878;51.774;7.220;2023-03-23T11:40:32;11.20;99.90
23411;DHT22;11878;51.774;7.220;2023-03-23T11:43:39;11.30;99.90
23411;DHT22;11878;51.774;7.220;2023-03-23T11:46:50;11.30;99.90
23411;DHT22;11878;51.774;7.220;2023-03-23T11:50:18;11.40;99.90
23411;DHT22;11878;51.774;7.220;2023-03-23T11:56:53;11.60;99.90
23411;DHT22;11878;51.774;7.220;2023-03-23T11:59:55;11.60;99.90
23411;DHT22;11878;51.774;7.220;2023-03-23T12:03:37;11.70;99.90
23411;DHT22;11878;51.774;7.220;2023-03-23T12:20:24;12.20;99.90
23411;DHT22;11878;51.774;7.220;2023-03-23T12:26:41;12.10;99.90
23411;DHT22;11878;51.774;7.220;2023-03-23T12:33:20;12.10;99.90
23411;DHT22;11878;51.774;7.220;2023-03-23T12:39:33;12.20;99.90
23411;DHT22;11878;51.774;7.220;2023-03-23T12:52:14;12.10;99.90
23411;DHT22;11878;51.774;7.220;2023-03-23T12:59:36;12.10;99.90
23411;DHT22;11878;51.774;7.220;2023-03-23T13:02:42;12.00;99.90
23411;DHT22;11878;51.774;7.220;2023-03-23T13:05:50;12.20;99.90
23411;DHT22;11878;51.774;7.220;2023-03-23T13:12:38;12.40;99.90
23411;DHT22;11878;51.774;7.220;2023-03-23T13:16:04;12.50;99.90
23411;DHT22;11878;51.774;7.220;2023-03-23T13:32:15;15.10;99.90
23411;DHT22;11878;51.774;7.220;2023-03-23T13:35:18;15.90;99.90
23411;DHT22;11878;51.774;7.220;2023-03-23T13:38:27;14.70;99.90
23411;DHT22;11878;51.774;7.220;2023-03-23T13:41:31;14.20;99.90
23411;DHT22;11878;51.774;7.220;2023-03-23T13:45:06;15.00;99.90
23411;DHT22;11878;51.774;7.220;2023-03-23T13:51:33;15.10;99.90
23411;DHT22;11878;51.774;7.220;2023-03-23T13:54:43;14.50;99.90
23411;DHT22;11878;51.774;7.220;2023-03-23T13:57:55;14.50;99.90
23411;DHT22;11878;51.774;7.220;2023-03-23T14:04:15;14.90;99.90
23411;DHT22;11878;51.774;7.220;2023-03-23T14:07:16;14.90;99.90
23411;DHT22;11878;51.774;7.220;2023-03-23T14:10:19;15.00;99.90
23411;DHT22;11878;51.774;7.220;2023-03-23T14:14:23;14.70;99.90
23411;DHT22;11878;51.774;7.220;2023-03-23T14:17:21;14.50;99.90
23411;DHT22;11878;51.774;7.220;2023-03-23T14:20:30;14.90;99.90
23411;DHT22;11878;51.774;7.220;2023-03-23T14:23:33;15.20;99.90
23411;DHT22;11878;51.774;7.220;2023-03-23T14:26:34;15.90;99.90
23411;DHT22;11878;51.774;7.220;2023-03-23T14:29:36;15.70;99.90
23411;DHT22;11878;51.774;7.220;2023-03-23T14:32:37;16.30;99.90
23411;DHT22;11878;51.774;7.220;2023-03-23T14:35:41;15.90;99.90
23411;DHT22;11878;51.774;7.220;2023-03-23T14:38:43;16.20;99.90
23411;DHT22;11878;51.774;7.220;2023-03-23T14:41:44;16.30;99.90
23411;DHT22;11878;51.774;7.220;2023-03-23T14:44:48;17.30;99.90
23411;DHT22;11878;51.774;7.220;2023-03-23T14:47:56;16.10;99.90
23411;DHT22;11878;51.774;7.220;2023-03-23T14:50:59;15.80;99.90
23411;DHT22;11878;51.774;7.220;2023-03-23T14:54:08;16.10;99.90
23411;DHT22;11878;51.774;7.220;2023-03-23T14:57:26;17.20;99.90
23411;DHT22;11878;51.774;7.220;2023-03-23T15:00:32;18.30;99.90
23411;DHT22;11878;51.774;7.220;2023-03-23T15:03:59;17.40;99.90
23411;DHT22;11878;51.774;7.220;2023-03-23T15:07:02;16.30;99.90
23411;DHT22;11878;51.774;7.220;2023-03-23T15:10:14;16.10;99.90
23411;DHT22;11878;51.774;7.220;2023-03-23T15:13:16;15.50;99.90
23411;DHT22;11878;51.774;7.220;2023-03-23T15:16:23;15.20;99.90
23411;DHT22;11878;51.774;7.220;2023-03-23T15:19:28;15.10;99.90
23411;DHT22;11878;51.774;7.220;2023-03-23T15:22:32;14.90;99.90
23411;DHT22;11878;51.774;7.220;2023-03-23T15:25:34;14.80;99.90
23411;DHT22;11878;51.774;7.220;2023-03-23T15:28:40;14.70;99.90
23411;DHT22;11878;51.774;7.220;2023-03-23T15:31:47;14.60;99.90
23411;DHT22;11878;51.774;7.220;2023-03-23T15:34:48;14.30;99.90
23411;DHT22;11878;51.774;7.220;2023-03-23T15:38:15;14.30;99.90
23411;DHT22;11878;51.774;7.220;2023-03-23T15:41:27;14.40;99.90
23411;DHT22;11878;51.774;7.220;2023-03-23T15:44:32;14.50;99.90
23411;DHT22;11878;51.774;7.220;2023-03-23T15:50:42;14.30;99.90
23411;DHT22;11878;51.774;7.220;2023-03-23T15:53:46;14.40;99.90
23411;DHT22;11878;51.774;7.220;2023-03-23T15:56:47;14.60;99.90
23411;DHT22;11878;51.774;7.220;2023-03-23T15:59:48;14.40;99.90
23411;DHT22;11878;51.774;7.220;2023-03-23T16:02:55;14.40;99.90
23411;DHT22;11878;51.774;7.220;2023-03-23T16:05:58;14.40;99.90
23411;DHT22;11878;51.774;7.220;2023-03-23T16:09:05;14.40;99.90
23411;DHT22;11878;51.774;7.220;2023-03-23T16:12:10;14.40;99.90
23411;DHT22;11878;51.774;7.220;2023-03-23T16:15:14;14.30;99.90
23411;DHT22;11878;51.774;7.220;2023-03-23T16:18:18;14.30;99.90
23411;DHT22;11878;51.774;7.220;2023-03-23T16:21:21;14.20;99.90
23411;DHT22;11878;51.774;7.220;2023-03-23T16:24:23;14.10;99.90
23411;DHT22;11878;51.774;7.220;2023-03-23T16:27:25;14.10;99.90
23411;DHT22;11878;51.774;7.220;2023-03-23T16:30:31;14.10;99.90
23411;DHT22;11878;51.774;7.220;2023-03-23T16:33:33;13.90;99.90
23411;DHT22;11878;51.774;7.220;2023-03-23T16:36:35;13.90;99.90
23411;DHT22;11878;51.774;7.220;2023-03-23T16:39:37;13.80;99.90
23411;DHT22;11878;51.774;7.220;2023-03-23T16:42:39;13.80;99.90
23411;DHT22;11878;51.774;7.220;2023-03-23T16:45:42;13.70;99.90
23411;DHT22;11878;51.774;7.220;2023-03-23T16:48:44;13.70;99.90
23411;DHT22;11878;51.774;7.220;2023-03-23T16:51:46;13.80;99.90
23411;DHT22;11878;51.774;7.220;2023-03-23T16:54:48;13.90;99.90
23411;DHT22;11878;51.774;7.220;2023-03-23T16:57:51;13.80;99.90
23411;DHT22;11878;51.774;7.220;2023-03-23T17:01:06;13.60;99.90
23411;DHT22;11878;51.774;7.220;2023-03-23T17:04:08;13.70;99.90
23411;DHT22;11878;51.774;7.220;2023-03-23T17:07:11;13.70;99.90
23411;DHT22;11878;51.774;7.220;2023-03-23T17:10:14;13.80;99.90
23411;DHT22;11878;51.774;7.220;2023-03-23T17:13:16;13.80;99.90
23411;DHT22;11878;51.774;7.220;2023-03-23T17:16:18;13.80;99.90
23411;DHT22;11878;51.774;7.220;2023-03-23T17:19:20;13.90;99.90
23411;DHT22;11878;51.774;7.220;2023-03-23T17:22:22;13.90;99.90
23411;DHT22;11878;51.774;7.220;2023-03-23T17:25:25;13.80;99.90
23411;DHT22;11878;51.774;7.220;2023-03-23T17:28:27;13.80;99.90
23411;DHT22;11878;51.774;7.220;2023-03-23T17:31:29;13.80;99.90
23411;DHT22;11878;51.774;7.220;2023-03-23T17:34:31;13.70;99.90
23411;DHT22;11878;51.774;7.220;2023-03-23T17:37:33;13.70;99.90
23411;DHT22;11878;51.774;7.220;2023-03-23T17:40:35;13.70;99.90
23411;DHT22;11878;51.774;7.220;2023-03-23T17:43:46;13.70;99.90
23411;DHT22;11878;51.774;7.220;2023-03-23T17:46:56;13.70;99.90
23411;DHT22;11878;51.774;7.220;2023-03-23T17:49:58;13.60;99.90
23411;DHT22;11878;51.774;7.220;2023-03-23T17:52:59;13.60;99.90
23411;DHT22;11878;51.774;7.220;2023-03-23T17:56:03;13.60;99.90
23411;DHT22;11878;51.774;7.220;2023-03-23T17:59:05;13.60;99.90
23411;DHT22;11878;51.774;7.220;2023-03-23T18:02:10;13.50;99.90
23411;DHT22;11878;51.774;7.220;2023-03-23T18:05:14;13.50;99.90
23411;DHT22;11878;51.774;7.220;2023-03-23T18:08:17;13.40;99.90
23411;DHT22;11878;51.774;7.220;2023-03-23T18:11:18;13.40;99.90
23411;DHT22;11878;51.774;7.220;2023-03-23T18:14:20;13.40;99.90
23411;DHT22;11878;51.774;7.220;2023-03-23T18:17:22;13.40;99.90
23411;DHT22;11878;51.774;7.220;2023-03-23T18:20:24;13.40;99.90
23411;DHT22;11878;51.774;7.220;2023-03-23T18:23:27;13.50;99.90
23411;DHT22;11878;51.774;7.220;2023-03-23T18:26:29;13.50;99.90
23411;DHT22;11878;51.774;7.220;2023-03-23T18:29:30;13.50;99.90
23411;DHT22;11878;51.774;7.220;2023-03-23T18:32:37;13.40;99.90
23411;DHT22;11878;51.774;7.220;2023-03-23T18:35:39;13.30;99.90
23411;DHT22;11878;51.774;7.220;2023-03-23T18:38:43;13.20;99.90
23411;DHT22;11878;51.774;7.220;2023-03-23T18:41:45;13.10;99.90
23411;DHT22;11878;51.774;7.220;2023-03-23T18:44:47;13.10;99.90
23411;DHT22;11878;51.774;7.220;2023-03-23T18:47:48;13.00;99.90
23411;DHT22;11878;51.774;7.220;2023-03-23T18:50:54;13.00;99.90
23411;DHT22;11878;51.774;7.220;2023-03-23T18:53:56;12.90;99.90
23411;DHT22;11878;51.774;7.220;2023-03-23T18:56:57;12.90;99.90
23411;DHT22;11878;51.774;7.220;2023-03-23T19:00:01;12.80;99.90
23411;DHT22;11878;51.774;7.220;2023-03-23T19:03:05;12.80;99.90
23411;DHT22;11878;51.774;7.220;2023-03-23T19:06:17;12.80;99.90
23411;DHT22;11878;51.774;7.220;2023-03-23T19:09:19;12.80;99.90
23411;DHT22;11878;51.774;7.220;2023-03-23T19:12:21;12.70;99.90
23411;DHT22;11878;51.774;7.220;2023-03-23T19:15:23;12.70;99.90
23411;DHT22;11878;51.774;7.220;2023-03-23T19:18:25;12.70;99.90
23411;DHT22;11878;51.774;7.220;2023-03-23T19:21:28;12.70;99.90
23411;DHT22;11878;51.774;7.220;2023-03-23T19:24:32;12.70;99.90
23411;DHT22;11878;51.774;7.220;2023-03-23T19:27:35;12.80;99.90
23411;DHT22;11878;51.774;7.220;2023-03-23T19:30:57;12.80;99.90
23411;DHT22;11878;51.774;7.220;2023-03-23T19:33:59;12.80;99.90
23411;DHT22;11878;51.774;7.220;2023-03-23T19:37:01;12.90;99.90
23411;DHT22;11878;51.774;7.220;2023-03-23T19:40:10;12.90;99.90
23411;DHT22;11878;51.774;7.220;2023-03-23T19:43:32;12.90;99.90
23411;DHT22;11878;51.774;7.220;2023-03-23T19:46:34;12.80;99.90
23411;DHT22;11878;51.774;7.220;2023-03-23T19:49:37;12.80;99.90
23411;DHT22;11878;51.774;7.220;2023-03-23T19:52:41;12.80;99.90
23411;DHT22;11878;51.774;7.220;2023-03-23T19:55:42;13.60;99.90
23411;DHT22;11878;51.774;7.220;2023-03-23T19:58:45;12.80;99.90
23411;DHT22;11878;51.774;7.220;2023-03-23T20:01:47;12.80;99.90
23411;DHT22;11878;51.774;7.220;2023-03-23T20:04:49;12.80;99.90
23411;DHT22;11878;51.774;7.220;2023-03-23T20:07:52;12.80;99.90
23411;DHT22;11878;51.774;7.220;2023-03-23T20:11:03;12.80;99.90
23411;DHT22;11878;51.774;7.220;2023-03-23T20:14:05;12.80;99.90
23411;DHT22;11878;51.774;7.220;2023-03-23T20:17:07;12.90;99.90
23411;DHT22;11878;51.774;7.220;2023-03-23T20:20:10;12.90;99.90
23411;DHT22;11878;51.774;7.220;2023-03-23T20:23:12;12.80;99.90
23411;DHT22;11878;51.774;7.220;2023-03-23T20:26:17;12.90;99.90
23411;DHT22;11878;51.774;7.220;2023-03-23T20:29:20;12.90;99.90
23411;DHT22;11878;51.774;7.220;2023-03-23T20:32:22;12.90;99.90
23411;DHT22;11878;51.774;7.220;2023-03-23T20:35:23;13.00;99.90
23411;DHT22;11878;51.774;7.220;2023-03-23T20:38:25;13.00;99.90
23411;DHT22;11878;51.774;7.220;2023-03-23T20:41:27;13.10;99.90
23411;DHT22;11878;51.774;7.220;2023-03-23T20:44:30;13.10;99.90
23411;DHT22;11878;51.774;7.220;2023-03-23T20:47:37;13.00;99.90
23411;DHT22;11878;51.774;7.220;2023-03-23T20:50:38;13.00;99.90
23411;DHT22;11878;51.774;7.220;2023-03-23T20:53:41;13.00;99.90
23411;DHT22;11878;51.774;7.220;2023-03-23T20:56:43;13.00;99.90
23411;DHT22;11878;51.774;7.220;2023-03-23T20:59:45;13.00;99.90
23411;DHT22;11878;51.774;7.220;2023-03-23T21:02:47;13.00;99.90
23411;DHT22;11878;51.774;7.220;2023-03-23T21:05:50;13.00;99.90
23411;DHT22;11878;51.774;7.220;2023-03-23T21:08:52;13.00;99.90